Souda — SVBH5 — position and weather

sailwx.info

Track history (hours):
 
Tides and Currents Weather Stations Pressure Air Temp Water Temp Dewpoint Dewpoint Depression Visibility Wind Speed Wind Dir Waves Ship Positions

Souda

Last reported at 2014-Dec-19 18:16 UTC. Time now 2014-Dec-20 05:13 UTC.
Position N 36°23' E 024°04'.

Length 88 m; draft 6.7 m.

Type: Tanker. MMSI: 241109000.

Date/timePositionNaut miles runAvg speedWind from/ knotsBaromVisibWave heightAir tempDewpointWater temp
2014-Dec-19 18:16N 36°23' E 024°04'9 8.2
2014-Dec-19 17:12N 36°32' E 024°02'5 8.4
2014-Dec-19 16:33N 36°38' E 024°01'9 8.4
2014-Dec-19 15:31N 36°46' E 023°59'8 8.2
2014-Dec-19 14:33N 36°54' E 023°57'43 8.4
2014-Dec-19 09:28N 37°35' E 023°44'7 7.8
2014-Dec-19 08:33N 37°42' E 023°41'8 8.2
2014-Dec-19 07:34N 37°49' E 023°36'9 8.5
2014-Dec-19 06:34N 37°51' E 023°25'7 0.2
2014-Dec-17 17:11N 37°52' E 023°16'6 9.2
2014-Dec-17 16:33N 37°51' E 023°23'8 8.1
2014-Dec-17 15:33N 37°52' E 023°33'6 5.3
2014-Dec-17 14:31N 37°57' E 023°35'0 0.0
2014-Dec-16 21:07N 37°57' E 023°35'0 0.0
2014-Dec-16 17:26N 37°57' E 023°35'3 2.9
2014-Dec-16 16:33N 37°55' E 023°35'2 2.3
2014-Dec-16 15:33N 37°54' E 023°33'0 0.0
2014-Dec-16 14:33N 37°54' E 023°33'0 0.0
2014-Dec-16 13:33N 37°54' E 023°33'0 0.0
2014-Dec-16 12:33N 37°54' E 023°33'0 0.0
2014-Dec-16 11:33N 37°54' E 023°33'0 0.0
2014-Dec-16 10:33N 37°54' E 023°33'1 1.3
2014-Dec-16 09:33N 37°52' E 023°33'7 6.8
2014-Dec-16 08:33N 37°51' E 023°24'15 0.8
2014-Dec-15 14:32N 37°54' E 023°06'1 0.6
2014-Dec-15 13:33N 37°55' E 023°07'0 0.1
2014-Dec-15 11:32N 37°55' E 023°07'6 6.2
2014-Dec-15 10:32N 37°52' E 023°14'9 9.2
2014-Dec-15 09:33N 37°51' E 023°25'9 9.2
2014-Dec-15 08:33N 37°50' E 023°37'8 8.4
2014-Dec-15 07:33N 37°43' E 023°43'10 8.8
2014-Dec-15 06:27N 37°37' E 023°53'8 9.4
2014-Dec-15 05:33N 37°36' E 024°03'9 9.5
2014-Dec-15 04:33N 37°41' E 024°14'1310.1
2014-Dec-15 03:17N 37°49' E 024°26'  
2014-Dec-11 10:20N 37°54' E 024°32'14 6.7
2014-Dec-11 08:17N 37°44' E 024°19'6 7.6
2014-Dec-11 07:27N 37°40' E 024°13'7 6.9
2014-Dec-11 06:23N 37°36' E 024°05'16 7.7
2014-Dec-11 04:17N 37°39' E 023°45'6 7.8
2014-Dec-11 03:33N 37°43' E 023°40'8 7.9
2014-Dec-11 02:33N 37°50' E 023°35'8 8.4
2014-Dec-11 01:33N 37°51' E 023°24'13 8.5
2014-Dec-11 00:04N 37°53' E 023°08'2 0.2
2014-Dec-10 10:29N 37°54' E 023°06'3 3.2
2014-Dec-10 09:31N 37°53' E 023°09'9 9.0
2014-Dec-10 08:33N 37°51' E 023°20'9 9.1
2014-Dec-10 07:33N 37°50' E 023°32'8 8.0
2014-Dec-10 06:33N 37°57' E 023°36'1 0.7
2014-Dec-10 05:27N 37°57' E 023°35'0 0.0
2014-Dec-10 04:33N 37°57' E 023°35'0 0.0
2014-Dec-10 03:33N 37°57' E 023°35'0 0.0
2014-Dec-09 22:33N 37°57' E 023°35'0 0.0
2014-Dec-09 21:33N 37°57' E 023°35'0 0.0
2014-Dec-09 20:33N 37°57' E 023°35'0 0.0
2014-Dec-09 19:33N 37°57' E 023°35'0 0.0
2014-Dec-09 18:33N 37°57' E 023°35'  
Track history (hours):
 
Tides and Currents Weather Stations Pressure Air Temp Water Temp Dewpoint Dewpoint Depression Visibility Wind Speed Wind Dir Waves Ship Positions

Souda

Last reported at 2014-Dec-19 18:16 UTC. Time now 2014-Dec-20 05:13 UTC.
Position N 36°23' E 024°04'.

Length 88 m; draft 6.7 m.

Type: Tanker. MMSI: 241109000.

Date/timePositionNaut miles runAvg speedWind from/ knotsBaromVisibWave heightAir tempDewpointWater temp
2014-Dec-19 18:16N 36°23' E 024°04'9 8.2
2014-Dec-19 17:12N 36°32' E 024°02'5 8.4
2014-Dec-19 16:33N 36°38' E 024°01'9 8.4
2014-Dec-19 15:31N 36°46' E 023°59'8 8.2
2014-Dec-19 14:33N 36°54' E 023°57'43 8.4
2014-Dec-19 09:28N 37°35' E 023°44'7 7.8
2014-Dec-19 08:33N 37°42' E 023°41'8 8.2
2014-Dec-19 07:34N 37°49' E 023°36'9 8.5
2014-Dec-19 06:34N 37°51' E 023°25'7 0.2
2014-Dec-17 17:11N 37°52' E 023°16'6 9.2
2014-Dec-17 16:33N 37°51' E 023°23'8 8.1
2014-Dec-17 15:33N 37°52' E 023°33'6 5.3
2014-Dec-17 14:31N 37°57' E 023°35'0 0.0
2014-Dec-16 21:07N 37°57' E 023°35'0 0.0
2014-Dec-16 17:26N 37°57' E 023°35'3 2.9
2014-Dec-16 16:33N 37°55' E 023°35'2 2.3
2014-Dec-16 15:33N 37°54' E 023°33'0 0.0
2014-Dec-16 14:33N 37°54' E 023°33'0 0.0
2014-Dec-16 13:33N 37°54' E 023°33'0 0.0
2014-Dec-16 12:33N 37°54' E 023°33'0 0.0
2014-Dec-16 11:33N 37°54' E 023°33'0 0.0
2014-Dec-16 10:33N 37°54' E 023°33'1 1.3
2014-Dec-16 09:33N 37°52' E 023°33'7 6.8
2014-Dec-16 08:33N 37°51' E 023°24'15 0.8
2014-Dec-15 14:32N 37°54' E 023°06'1 0.6
2014-Dec-15 13:33N 37°55' E 023°07'0 0.1
2014-Dec-15 11:32N 37°55' E 023°07'6 6.2
2014-Dec-15 10:32N 37°52' E 023°14'9 9.2
2014-Dec-15 09:33N 37°51' E 023°25'9 9.2
2014-Dec-15 08:33N 37°50' E 023°37'8 8.4
2014-Dec-15 07:33N 37°43' E 023°43'10 8.8
2014-Dec-15 06:27N 37°37' E 023°53'8 9.4
2014-Dec-15 05:33N 37°36' E 024°03'9 9.5
2014-Dec-15 04:33N 37°41' E 024°14'1310.1
2014-Dec-15 03:17N 37°49' E 024°26'  
2014-Dec-11 10:20N 37°54' E 024°32'14 6.7
2014-Dec-11 08:17N 37°44' E 024°19'6 7.6
2014-Dec-11 07:27N 37°40' E 024°13'7 6.9
2014-Dec-11 06:23N 37°36' E 024°05'16 7.7
2014-Dec-11 04:17N 37°39' E 023°45'6 7.8
2014-Dec-11 03:33N 37°43' E 023°40'8 7.9
2014-Dec-11 02:33N 37°50' E 023°35'8 8.4
2014-Dec-11 01:33N 37°51' E 023°24'13 8.5
2014-Dec-11 00:04N 37°53' E 023°08'2 0.2
2014-Dec-10 10:29N 37°54' E 023°06'3 3.2
2014-Dec-10 09:31N 37°53' E 023°09'9 9.0
2014-Dec-10 08:33N 37°51' E 023°20'9 9.1
2014-Dec-10 07:33N 37°50' E 023°32'8 8.0
2014-Dec-10 06:33N 37°57' E 023°36'1 0.7
2014-Dec-10 05:27N 37°57' E 023°35'0 0.0
2014-Dec-10 04:33N 37°57' E 023°35'0 0.0
2014-Dec-10 03:33N 37°57' E 023°35'0 0.0
2014-Dec-09 22:33N 37°57' E 023°35'0 0.0
2014-Dec-09 21:33N 37°57' E 023°35'0 0.0
2014-Dec-09 20:33N 37°57' E 023°35'0 0.0
2014-Dec-09 19:33N 37°57' E 023°35'0 0.0
2014-Dec-09 18:33N 37°57' E 023°35'  

Dump ship's entire track history